Time,TemperatureF,DewpointF,PressureIn,WindDirection,WindDirectionDegrees,WindSpeedMPH,WindSpeedGustMPH,Humidity,HourlyPrecipIn,Conditions,Clouds,dailyrainin,SoftwareType,DateUTC
2012-12-14 00:00:00,40.5,39.2,29.78,SW,225,1.3,4.0,95,0.04,,,0.01,WUHU216HW,2012-12-14 08:00:00,
2012-12-14 00:05:00,40.5,39.2,29.77,SW,225,6.7,6.7,95,0.04,,,0.01,WUHU216HW,2012-12-14 08:05:00,
2012-12-14 00:10:00,40.3,39.0,29.77,WSW,248,3.6,6.7,95,0.04,,,0.01,WUHU216HW,2012-12-14 08:10:00,
2012-12-14 00:15:00,40.3,39.0,29.77,SSW,203,1.8,6.7,95,0.05,,,0.02,WUHU216HW,2012-12-14 08:15:00,
2012-12-14 00:20:00,40.3,39.0,29.77,SW,225,3.8,6.5,95,0.04,,,0.02,WUHU216HW,2012-12-14 08:20:00,
2012-12-14 00:25:00,40.3,38.7,29.77,SW,225,2.0,8.5,94,0.04,,,0.02,WUHU216HW,2012-12-14 08:25:00,
2012-12-14 00:30:00,40.3,38.7,29.76,SSW,203,2.5,8.5,94,0.04,,,0.03,WUHU216HW,2012-12-14 08:30:00,
2012-12-14 00:35:00,40.3,38.7,29.77,WSW,248,1.1,4.5,94,0.04,,,0.03,WUHU216HW,2012-12-14 08:35:00,
2012-12-14 00:40:00,40.3,38.7,29.76,WSW,248,4.5,4.5,94,0.04,,,0.03,WUHU216HW,2012-12-14 08:40:00,
2012-12-14 00:45:00,40.1,38.5,29.76,SSW,203,1.1,4.5,94,0.05,,,0.04,WUHU216HW,2012-12-14 08:45:00,
2012-12-14 00:50:00,40.1,38.5,29.76,SW,225,1.3,4.5,94,0.04,,,0.04,WUHU216HW,2012-12-14 08:50:00,
2012-12-14 00:56:00,40.1,38.5,29.76,SW,225,2.5,3.4,94,0.04,,,0.04,WUHU216HW,2012-12-14 08:56:00,
2012-12-14 01:01:00,40.1,38.5,29.76,SW,225,5.1,5.1,94,0.04,,,0.05,WUHU216HW,2012-12-14 09:01:00,
2012-12-14 01:05:00,40.1,38.5,29.76,SW,225,2.5,6.3,94,0.04,,,0.05,WUHU216HW,2012-12-14 09:05:00,
2012-12-14 01:10:00,40.1,38.5,29.76,WSW,248,4.5,6.3,94,0.04,,,0.05,WUHU216HW,2012-12-14 09:10:00,
2012-12-14 01:15:00,40.0,38.3,29.76,SW,225,4.0,6.3,94,0.03,,,0.05,WUHU216HW,2012-12-14 09:15:00,
2012-12-14 01:20:00,40.0,38.3,29.76,WSW,248,5.1,6.5,94,0.03,,,0.05,WUHU216HW,2012-12-14 09:20:00,
2012-12-14 01:25:00,40.0,38.3,29.76,South,180,2.5,6.5,94,0.03,,,0.06,WUHU216HW,2012-12-14 09:25:00,
2012-12-14 01:30:00,40.0,38.3,29.76,WSW,248,4.0,5.8,94,0.03,,,0.06,WUHU216HW,2012-12-14 09:30:00,
2012-12-14 01:35:00,40.0,38.3,29.76,SW,225,3.6,5.6,94,0.03,,,0.06,WUHU216HW,2012-12-14 09:35:00,
2012-12-14 01:40:00,40.0,38.3,29.75,WSW,248,2.0,5.6,94,0.02,,,0.06,WUHU216HW,2012-12-14 09:40:00,
2012-12-14 01:45:00,40.0,38.3,29.75,SW,225,1.3,5.1,94,0.03,,,0.07,WUHU216HW,2012-12-14 09:45:00,
2012-12-14 01:50:00,39.8,38.2,29.75,SW,225,2.5,5.6,94,0.03,,,0.07,WUHU216HW,2012-12-14 09:50:00,
2012-12-14 01:55:00,39.8,38.2,29.75,SSW,203,2.7,5.8,94,0.03,,,0.07,WUHU216HW,2012-12-14 09:55:00,
2012-12-14 02:00:00,39.8,38.2,29.75,SSW,203,3.8,7.2,94,0.02,,,0.07,WUHU216HW,2012-12-14 10:00:00,
2012-12-14 02:05:00,39.8,38.2,29.75,WSW,248,1.8,7.2,94,0.02,,,0.07,WUHU216HW,2012-12-14 10:05:00,
2012-12-14 02:10:00,39.8,38.2,29.75,SW,225,3.1,6.9,94,0.03,,,0.08,WUHU216HW,2012-12-14 10:10:00,
2012-12-14 02:15:00,39.8,38.2,29.75,SSW,203,1.8,6.9,94,0.03,,,0.08,WUHU216HW,2012-12-14 10:15:00,
2012-12-14 02:20:00,39.8,38.2,29.75,West,270,2.7,5.6,94,0.02,,,0.08,WUHU216HW,2012-12-14 10:20:00,
2012-12-14 02:26:00,39.6,38.0,29.75,SSW,203,1.8,5.6,94,0.03,,,0.09,WUHU216HW,2012-12-14 10:26:00,
2012-12-14 02:31:00,39.8,38.2,29.75,SW,225,1.8,5.6,94,0.03,,,0.09,WUHU216HW,2012-12-14 10:31:00,
2012-12-14 02:35:00,39.6,38.0,29.75,SSW,203,1.8,4.7,94,0.03,,,0.09,WUHU216HW,2012-12-14 10:35:00,
2012-12-14 02:41:00,39.6,38.0,29.75,WSW,248,4.5,4.7,94,0.03,,,0.09,WUHU216HW,2012-12-14 10:41:00,
2012-12-14 02:46:00,39.6,38.0,29.75,SW,225,2.7,4.7,94,0.02,,,0.09,WUHU216HW,2012-12-14 10:46:00,
2012-12-14 02:51:00,39.6,38.0,29.75,WSW,248,1.1,4.7,94,0.02,,,0.09,WUHU216HW,2012-12-14 10:51:00,
2012-12-14 02:56:00,39.6,38.0,29.75,SW,225,4.7,4.7,94,0.03,,,0.10,WUHU216HW,2012-12-14 10:56:00,
2012-12-14 03:01:00,39.6,38.0,29.75,SW,225,0.7,4.7,94,0.03,,,0.10,WUHU216HW,2012-12-14 11:01:00,
2012-12-14 03:06:00,39.6,38.0,29.75,WSW,248,5.4,6.0,94,0.02,,,0.10,WUHU216HW,2012-12-14 11:06:00,
2012-12-14 03:11:00,39.6,38.0,29.74,WSW,248,4.7,6.9,94,0.03,,,0.11,WUHU216HW,2012-12-14 11:11:00,
2012-12-14 03:16:00,39.6,38.0,29.75,WSW,248,2.9,6.9,94,0.03,,,0.11,WUHU216HW,2012-12-14 11:16:00,
2012-12-14 03:21:00,39.6,38.0,29.75,SSW,203,2.7,5.4,94,0.03,,,0.12,WUHU216HW,2012-12-14 11:21:00,
2012-12-14 03:26:00,39.6,38.0,29.74,South,180,3.4,6.9,94,0.03,,,0.12,WUHU216HW,2012-12-14 11:26:00,
2012-12-14 03:31:00,39.6,38.0,29.74,WSW,248,3.1,7.4,94,0.04,,,0.13,WUHU216HW,2012-12-14 11:31:00,
2012-12-14 03:36:00,39.6,38.0,29.74,SSW,203,4.9,7.4,94,0.04,,,0.13,WUHU216HW,2012-12-14 11:36:00,
2012-12-14 03:41:00,39.6,38.0,29.75,WSW,248,1.6,4.9,94,0.04,,,0.13,WUHU216HW,2012-12-14 11:41:00,
2012-12-14 03:46:00,39.4,37.8,29.75,West,270,0.7,4.5,94,0.05,,,0.14,WUHU216HW,2012-12-14 11:46:00,
2012-12-14 03:51:00,39.4,37.8,29.74,SSW,203,2.0,3.4,94,0.06,,,0.15,WUHU216HW,2012-12-14 11:51:00,
2012-12-14 03:56:00,39.4,37.8,29.75,WSW,248,0.0,4.5,94,0.05,,,0.15,WUHU216HW,2012-12-14 11:56:00,
2012-12-14 04:01:00,39.4,37.8,29.75,West,270,2.7,4.5,94,0.06,,,0.16,WUHU216HW,2012-12-14 12:01:00,
2012-12-14 04:06:00,39.4,37.8,29.75,SW,225,3.6,4.0,94,0.06,,,0.16,WUHU216HW,2012-12-14 12:06:00,
2012-12-14 04:11:00,39.2,37.6,29.75,West,270,2.5,4.5,94,0.06,,,0.17,WUHU216HW,2012-12-14 12:11:00,
2012-12-14 04:16:00,39.2,37.6,29.75,WSW,248,2.7,4.5,94,0.06,,,0.17,WUHU216HW,2012-12-14 12:16:00,
2012-12-14 04:21:00,39.2,37.6,29.75,SW,225,2.0,2.7,94,0.05,,,0.17,WUHU216HW,2012-12-14 12:21:00,
2012-12-14 04:26:00,39.2,37.6,29.74,WSW,248,3.8,5.1,94,0.05,,,0.17,WUHU216HW,2012-12-14 12:26:00,
2012-12-14 04:31:00,39.2,37.6,29.74,SW,225,1.8,5.1,94,0.05,,,0.18,WUHU216HW,2012-12-14 12:31:00,
2012-12-14 04:36:00,39.2,37.6,29.74,WSW,248,2.7,6.3,94,0.05,,,0.18,WUHU216HW,2012-12-14 12:36:00,
2012-12-14 04:41:00,39.1,37.4,29.74,WSW,248,0.4,6.3,94,0.04,,,0.18,WUHU216HW,2012-12-14 12:41:00,
2012-12-14 04:46:00,39.1,37.4,29.75,WSW,248,1.1,4.5,94,0.04,,,0.18,WUHU216HW,2012-12-14 12:46:00,
2012-12-14 04:51:00,39.1,37.4,29.75,West,270,0.0,3.8,94,0.03,,,0.18,WUHU216HW,2012-12-14 12:51:00,
2012-12-14 04:56:00,39.1,37.4,29.75,SSE,158,1.8,3.8,94,0.02,,,0.18,WUHU216HW,2012-12-14 12:56:00,
2012-12-14 05:01:00,39.1,37.4,29.75,WSW,248,1.8,2.9,94,0.02,,,0.18,WUHU216HW,2012-12-14 13:01:00,
2012-12-14 05:06:00,39.2,37.6,29.75,SW,225,1.1,4.3,94,0.01,,,0.18,WUHU216HW,2012-12-14 13:06:00,
2012-12-14 05:11:00,39.2,37.6,29.75,SSW,203,1.1,5.4,94,0.01,,,0.18,WUHU216HW,2012-12-14 13:11:00,
2012-12-14 05:16:00,39.2,37.6,29.75,SSW,203,3.4,5.4,94,0.01,,,0.18,WUHU216HW,2012-12-14 13:16:00,
2012-12-14 05:21:00,39.1,37.4,29.75,WSW,248,1.1,6.3,94,0.01,,,0.18,WUHU216HW,2012-12-14 13:21:00,
2012-12-14 05:26:00,39.1,37.4,29.76,WSW,248,0.9,6.3,94,0.00,,,0.18,WUHU216HW,2012-12-14 13:26:00,
2012-12-14 05:31:00,39.1,37.4,29.76,WSW,248,3.4,5.1,94,0.00,,,0.18,WUHU216HW,2012-12-14 13:31:00,
2012-12-14 05:36:00,39.1,37.4,29.76,WSW,248,1.3,3.4,94,0.00,,,0.18,WUHU216HW,2012-12-14 13:36:00,
2012-12-14 05:41:00,39.1,37.4,29.76,SW,225,1.6,3.4,94,0.01,,,0.19,WUHU216HW,2012-12-14 13:41:00,
2012-12-14 05:46:00,39.1,37.4,29.76,WSW,248,1.1,3.4,94,0.01,,,0.19,WUHU216HW,2012-12-14 13:46:00,
2012-12-14 05:51:00,39.2,37.6,29.76,SSW,203,0.2,3.4,94,0.01,,,0.19,WUHU216HW,2012-12-14 13:51:00,
2012-12-14 05:56:00,39.2,37.6,29.76,West,270,0.4,2.5,94,0.01,,,0.19,WUHU216HW,2012-12-14 13:56:00,
2012-12-14 06:01:00,39.2,37.6,29.76,WSW,248,0.4,1.6,94,0.01,,,0.19,WUHU216HW,2012-12-14 14:01:00,
2012-12-14 06:06:00,39.2,37.6,29.76,NNE,23,1.1,1.8,94,0.01,,,0.19,WUHU216HW,2012-12-14 14:06:00,
2012-12-14 06:11:00,39.1,37.4,29.76,NNE,23,0.2,1.8,94,0.02,,,0.20,WUHU216HW,2012-12-14 14:11:00,
2012-12-14 06:16:00,39.1,37.4,29.76,North,0,0.0,0.7,94,0.02,,,0.20,WUHU216HW,2012-12-14 14:16:00,
2012-12-14 06:21:00,39.2,37.6,29.77,North,0,0.0,0.4,94,0.02,,,0.20,WUHU216HW,2012-12-14 14:21:00,
2012-12-14 06:26:00,39.2,37.6,29.76,East,90,1.3,1.3,94,0.02,,,0.20,WUHU216HW,2012-12-14 14:26:00,
2012-12-14 06:31:00,39.2,37.6,29.77,East,90,0.0,1.3,94,0.02,,,0.20,WUHU216HW,2012-12-14 14:31:00,
2012-12-14 06:36:00,39.2,37.6,29.77,East,90,0.0,1.3,94,0.01,,,0.20,WUHU216HW,2012-12-14 14:36:00,
2012-12-14 06:41:00,39.2,37.6,29.77,East,90,0.0,0.4,94,0.01,,,0.20,WUHU216HW,2012-12-14 14:41:00,
2012-12-14 06:46:00,39.2,37.6,29.77,East,90,0.0,0.0,94,0.01,,,0.20,WUHU216HW,2012-12-14 14:46:00,
2012-12-14 06:51:00,39.2,37.6,29.77,East,90,0.0,1.1,94,0.01,,,0.20,WUHU216HW,2012-12-14 14:51:00,
2012-12-14 06:56:00,39.2,37.6,29.78,ENE,68,1.6,2.5,94,0.01,,,0.20,WUHU216HW,2012-12-14 14:56:00,
2012-12-14 07:01:00,39.2,37.6,29.78,ENE,68,0.0,2.5,94,0.01,,,0.20,WUHU216HW,2012-12-14 15:01:00,
2012-12-14 07:06:00,39.2,37.6,29.78,ENE,68,0.4,1.8,94,0.01,,,0.20,WUHU216HW,2012-12-14 15:06:00,
2012-12-14 07:11:00,39.2,37.6,29.78,NNW,338,0.7,1.1,94,0.00,,,0.20,WUHU216HW,2012-12-14 15:11:00,
2012-12-14 07:16:00,39.2,37.6,29.78,WNW,293,1.1,1.1,94,0.00,,,0.20,WUHU216HW,2012-12-14 15:16:00,
2012-12-14 07:21:00,39.1,37.4,29.78,SW,225,0.7,1.8,94,0.00,,,0.20,WUHU216HW,2012-12-14 15:21:00,
2012-12-14 07:26:00,39.1,37.4,29.78,West,270,1.1,1.8,94,0.00,,,0.20,WUHU216HW,2012-12-14 15:26:00,
2012-12-14 07:31:00,39.1,37.4,29.79,West,270,1.1,1.8,94,0.00,,,0.20,WUHU216HW,2012-12-14 15:31:00,
2012-12-14 07:36:00,39.2,37.6,29.79,West,270,0.4,1.1,94,0.00,,,0.20,WUHU216HW,2012-12-14 15:36:00,
2012-12-14 07:41:00,39.2,37.6,29.79,West,270,0.0,1.1,94,0.00,,,0.20,WUHU216HW,2012-12-14 15:41:00,
2012-12-14 07:46:00,39.2,37.6,29.79,West,270,0.4,1.1,94,0.00,,,0.20,WUHU216HW,2012-12-14 15:46:00,
2012-12-14 07:51:00,39.2,37.6,29.79,West,270,1.1,1.6,94,0.00,,,0.20,WUHU216HW,2012-12-14 15:51:00,
2012-12-14 07:56:00,39.2,37.6,29.79,West,270,1.8,1.8,94,0.00,,,0.20,WUHU216HW,2012-12-14 15:56:00,
2012-12-14 08:01:00,39.1,37.4,29.80,WSW,248,2.2,2.2,94,0.00,,,0.20,WUHU216HW,2012-12-14 16:01:00,
2012-12-14 08:06:00,39.1,37.4,29.80,WSW,248,1.3,2.2,94,0.00,,,0.20,WUHU216HW,2012-12-14 16:06:00,
2012-12-14 08:11:00,39.1,37.4,29.80,SW,225,0.9,2.2,94,0.00,,,0.20,WUHU216HW,2012-12-14 16:11:00,
2012-12-14 08:16:00,39.1,37.4,29.80,WSW,248,2.5,2.5,94,0.00,,,0.20,WUHU216HW,2012-12-14 16:16:00,
2012-12-14 08:21:00,39.2,37.6,29.80,WSW,248,1.1,2.5,94,0.00,,,0.20,WUHU216HW,2012-12-14 16:21:00,
2012-12-14 08:26:00,39.2,37.6,29.80,WSW,248,1.1,2.5,94,0.00,,,0.20,WUHU216HW,2012-12-14 16:26:00,
2012-12-14 08:31:00,39.2,37.6,29.81,WSW,248,0.4,1.6,94,0.00,,,0.20,WUHU216HW,2012-12-14 16:31:00,
2012-12-14 08:36:00,39.2,37.6,29.81,WSW,248,0.0,1.6,94,0.00,,,0.20,WUHU216HW,2012-12-14 16:36:00,
2012-12-14 08:41:00,39.2,37.6,29.81,WSW,248,0.0,0.9,94,0.00,,,0.20,WUHU216HW,2012-12-14 16:41:00,
2012-12-14 08:46:00,39.2,37.6,29.81,West,270,1.6,3.1,94,0.00,,,0.20,WUHU216HW,2012-12-14 16:46:00,
2012-12-14 08:51:00,39.2,37.9,29.81,West,270,1.1,3.1,95,0.00,,,0.20,WUHU216HW,2012-12-14 16:51:00,
2012-12-14 08:56:00,39.2,37.6,29.81,West,270,1.1,1.6,94,0.00,,,0.20,WUHU216HW,2012-12-14 16:56:00,
2012-12-14 09:01:00,39.2,37.6,29.82,SW,225,1.6,1.8,94,0.00,,,0.20,WUHU216HW,2012-12-14 17:01:00,
2012-12-14 09:06:00,39.2,37.6,29.82,West,270,0.2,1.8,94,0.00,,,0.20,WUHU216HW,2012-12-14 17:06:00,
2012-12-14 09:11:00,39.4,37.8,29.82,West,270,0.0,2.2,94,0.00,,,0.20,WUHU216HW,2012-12-14 17:11:00,
2012-12-14 09:16:00,39.4,38.1,29.82,WNW,293,0.4,2.2,95,0.00,,,0.20,WUHU216HW,2012-12-14 17:16:00,
2012-12-14 09:21:00,39.6,38.3,29.82,NNW,338,0.9,1.1,95,0.00,,,0.20,WUHU216HW,2012-12-14 17:21:00,
2012-12-14 09:26:00,39.6,38.0,29.82,North,0,0.4,1.1,94,0.00,,,0.20,WUHU216HW,2012-12-14 17:26:00,
2012-12-14 09:31:00,39.6,38.3,29.83,North,0,0.4,1.1,95,0.00,,,0.20,WUHU216HW,2012-12-14 17:31:00,
2012-12-14 09:36:00,39.8,38.4,29.83,West,270,0.4,1.8,95,0.00,,,0.20,WUHU216HW,2012-12-14 17:36:00,
2012-12-14 09:41:00,40.0,38.6,29.83,West,270,0.4,1.8,95,0.00,,,0.20,WUHU216HW,2012-12-14 17:41:00,
2012-12-14 09:46:00,40.0,38.6,29.83,WSW,248,0.0,1.3,95,0.00,,,0.20,WUHU216HW,2012-12-14 17:46:00,
2012-12-14 09:51:00,40.0,38.6,29.83,WSW,248,0.0,1.1,95,0.00,,,0.20,WUHU216HW,2012-12-14 17:51:00,
2012-12-14 09:56:00,40.1,38.8,29.84,WSW,248,0.0,1.1,95,0.00,,,0.20,WUHU216HW,2012-12-14 17:56:00,
2012-12-14 10:01:00,40.3,39.0,29.84,NNW,338,0.0,1.1,95,0.00,,,0.20,WUHU216HW,2012-12-14 18:01:00,
2012-12-14 10:06:00,40.3,39.0,29.84,NW,315,0.4,1.1,95,0.00,,,0.20,WUHU216HW,2012-12-14 18:06:00,
2012-12-14 10:11:00,40.3,39.2,29.84,West,270,0.0,1.1,96,0.00,,,0.20,WUHU216HW,2012-12-14 18:11:00,
2012-12-14 10:16:00,40.3,39.2,29.84,WSW,248,1.1,1.1,96,0.00,,,0.20,WUHU216HW,2012-12-14 18:16:00,
2012-12-14 10:21:00,40.5,39.4,29.84,NNW,338,1.8,2.7,96,0.00,,,0.20,WUHU216HW,2012-12-14 18:21:00,
2012-12-14 10:26:00,40.3,39.2,29.84,West,270,1.1,3.4,96,0.00,,,0.20,WUHU216HW,2012-12-14 18:26:00,
2012-12-14 10:31:00,40.5,39.4,29.84,NW,315,0.4,3.4,96,0.00,,,0.20,WUHU216HW,2012-12-14 18:31:00,
2012-12-14 10:36:00,40.5,39.4,29.84,SW,225,0.4,1.8,96,0.00,,,0.20,WUHU216HW,2012-12-14 18:36:00,
2012-12-14 10:41:00,40.7,39.6,29.84,North,0,2.5,2.5,96,0.00,,,0.20,WUHU216HW,2012-12-14 18:41:00,
2012-12-14 10:46:00,40.7,39.3,29.84,NNW,338,2.0,2.5,95,0.00,,,0.20,WUHU216HW,2012-12-14 18:46:00,
2012-12-14 10:51:00,40.7,39.3,29.85,West,270,0.4,2.5,95,0.00,,,0.20,WUHU216HW,2012-12-14 18:51:00,
2012-12-14 10:56:00,40.9,39.8,29.84,WSW,248,2.7,2.7,96,0.00,,,0.20,WUHU216HW,2012-12-14 18:56:00,
2012-12-14 11:01:00,40.9,39.5,29.84,NW,315,0.7,2.7,95,0.00,,,0.20,WUHU216HW,2012-12-14 19:01:00,
2012-12-14 11:06:00,40.9,39.5,29.85,NE,45,0.4,2.7,95,0.00,,,0.20,WUHU216HW,2012-12-14 19:06:00,
2012-12-14 11:11:00,40.9,39.5,29.85,NNW,338,0.9,2.2,95,0.00,,,0.20,WUHU216HW,2012-12-14 19:11:00,
2012-12-14 11:16:00,40.9,39.5,29.84,WNW,293,1.1,1.8,95,0.00,,,0.20,WUHU216HW,2012-12-14 19:16:00,
2012-12-14 11:21:00,41.0,39.7,29.85,NW,315,1.1,3.4,95,0.00,,,0.20,WUHU216HW,2012-12-14 19:21:00,
2012-12-14 11:26:00,41.0,39.7,29.85,NNW,338,2.5,3.4,95,0.00,,,0.20,WUHU216HW,2012-12-14 19:26:00,
2012-12-14 11:31:00,41.0,39.7,29.85,West,270,0.7,3.4,95,0.00,,,0.20,WUHU216HW,2012-12-14 19:31:00,
2012-12-14 11:36:00,41.4,40.1,29.85,West,270,3.4,4.7,95,0.00,,,0.20,WUHU216HW,2012-12-14 19:36:00,
2012-12-14 11:41:00,41.8,40.4,29.85,NW,315,3.6,4.7,95,0.00,,,0.20,WUHU216HW,2012-12-14 19:41:00,
2012-12-14 11:46:00,42.1,40.8,29.85,North,0,1.6,4.7,95,0.00,,,0.20,WUHU216HW,2012-12-14 19:46:00,
2012-12-14 11:51:00,42.3,41.0,29.85,NNE,23,1.8,4.7,95,0.00,,,0.20,WUHU216HW,2012-12-14 19:51:00,
2012-12-14 11:56:00,42.3,41.0,29.85,NNW,338,2.5,3.4,95,0.00,,,0.20,WUHU216HW,2012-12-14 19:56:00,
2012-12-14 12:01:00,42.5,41.1,29.85,NNE,23,4.7,4.7,95,0.00,,,0.20,WUHU216HW,2012-12-14 20:01:00,
2012-12-14 12:06:00,42.7,41.3,29.85,NE,45,2.5,5.6,95,0.00,,,0.20,WUHU216HW,2012-12-14 20:06:00,
2012-12-14 12:11:00,42.8,41.2,29.85,East,90,2.7,5.6,94,0.00,,,0.20,WUHU216HW,2012-12-14 20:11:00,
2012-12-14 12:16:00,42.8,41.2,29.85,NW,315,1.8,4.0,94,0.00,,,0.20,WUHU216HW,2012-12-14 20:16:00,
2012-12-14 12:21:00,42.8,41.0,29.85,NNE,23,1.3,3.6,93,0.00,,,0.20,WUHU216HW,2012-12-14 20:21:00,
2012-12-14 12:26:00,42.8,41.0,29.85,NE,45,0.9,3.6,93,0.00,,,0.20,WUHU216HW,2012-12-14 20:26:00,
2012-12-14 12:31:00,42.8,41.0,29.85,NNE,23,1.1,3.1,93,0.00,,,0.20,WUHU216HW,2012-12-14 20:31:00,
2012-12-14 12:36:00,42.8,41.0,29.85,NE,45,4.0,4.0,93,0.00,,,0.20,WUHU216HW,2012-12-14 20:36:00,
2012-12-14 12:41:00,42.8,40.7,29.86,NNE,23,6.0,6.0,92,0.00,,,0.20,WUHU216HW,2012-12-14 20:41:00,
2012-12-14 12:46:00,42.8,40.7,29.86,NNE,23,6.5,6.5,92,0.00,,,0.20,WUHU216HW,2012-12-14 20:46:00,
2012-12-14 12:51:00,42.7,40.5,29.86,North,0,1.1,6.5,92,0.00,,,0.20,WUHU216HW,2012-12-14 20:51:00,
2012-12-14 12:56:00,42.5,40.3,29.86,NNE,23,2.2,5.4,92,0.00,,,0.20,WUHU216HW,2012-12-14 20:56:00,
2012-12-14 13:01:00,42.3,40.1,29.86,NNE,23,1.8,4.0,92,0.00,,,0.20,WUHU216HW,2012-12-14 21:01:00,
2012-12-14 13:06:00,42.3,40.1,29.86,ENE,68,2.9,3.1,92,0.00,,,0.20,WUHU216HW,2012-12-14 21:06:00,
2012-12-14 13:11:00,42.5,40.3,29.86,ENE,68,1.1,2.9,92,0.00,,,0.20,WUHU216HW,2012-12-14 21:11:00,
2012-12-14 13:16:00,42.5,40.3,29.86,SW,225,1.8,3.1,92,0.00,,,0.20,WUHU216HW,2012-12-14 21:16:00,
2012-12-14 13:21:00,42.5,40.3,29.86,NNE,23,2.5,4.3,92,0.00,,,0.20,WUHU216HW,2012-12-14 21:21:00,
2012-12-14 13:26:00,42.5,40.1,29.86,NNE,23,2.5,4.3,91,0.00,,,0.20,WUHU216HW,2012-12-14 21:26:00,
2012-12-14 13:31:00,42.5,40.1,29.86,North,0,4.9,4.9,91,0.00,,,0.20,WUHU216HW,2012-12-14 21:31:00,
2012-12-14 13:36:00,42.5,40.1,29.86,North,0,2.5,4.9,91,0.00,,,0.20,WUHU216HW,2012-12-14 21:36:00,
2012-12-14 13:41:00,42.3,39.6,29.86,North,0,1.8,4.9,90,0.00,,,0.20,WUHU216HW,2012-12-14 21:41:00,
2012-12-14 13:46:00,42.3,39.9,29.87,ESE,113,3.4,4.9,91,0.00,,,0.20,WUHU216HW,2012-12-14 21:46:00,
2012-12-14 13:51:00,42.3,39.9,29.86,NE,45,2.5,4.0,91,0.00,,,0.20,WUHU216HW,2012-12-14 21:51:00,
2012-12-14 13:56:00,42.3,39.6,29.87,NE,45,2.0,4.0,90,0.00,,,0.20,WUHU216HW,2012-12-14 21:56:00,
2012-12-14 14:01:00,42.3,39.9,29.87,SE,135,0.4,4.0,91,0.00,,,0.20,WUHU216HW,2012-12-14 22:01:00,
2012-12-14 14:06:00,42.3,39.9,29.87,NE,45,2.9,2.9,91,0.00,,,0.20,WUHU216HW,2012-12-14 22:06:00,
2012-12-14 14:11:00,42.1,39.7,29.87,NNE,23,6.5,6.5,91,0.00,,,0.20,WUHU216HW,2012-12-14 22:11:00,
2012-12-14 14:16:00,42.1,39.7,29.87,East,90,2.0,6.5,91,0.00,,,0.20,WUHU216HW,2012-12-14 22:16:00,
2012-12-14 14:21:00,42.1,39.7,29.87,SE,135,4.0,6.5,91,0.00,,,0.20,WUHU216HW,2012-12-14 22:21:00,
2012-12-14 14:26:00,42.1,39.4,29.87,East,90,1.1,5.4,90,0.00,,,0.20,WUHU216HW,2012-12-14 22:26:00,
2012-12-14 14:31:00,42.1,39.7,29.87,NNE,23,2.7,4.7,91,0.00,,,0.20,WUHU216HW,2012-12-14 22:31:00,
2012-12-14 14:36:00,42.1,39.4,29.88,ENE,68,0.4,4.3,90,0.00,,,0.20,WUHU216HW,2012-12-14 22:36:00,
2012-12-14 14:41:00,42.1,39.4,29.88,ENE,68,0.4,4.3,90,0.00,,,0.20,WUHU216HW,2012-12-14 22:41:00,
2012-12-14 14:46:00,41.9,39.5,29.88,ESE,113,0.4,2.5,91,0.00,,,0.20,WUHU216HW,2012-12-14 22:46:00,
2012-12-14 14:51:00,41.9,39.5,29.88,NE,45,2.2,2.7,91,0.00,,,0.20,WUHU216HW,2012-12-14 22:51:00,
2012-12-14 14:56:00,41.9,39.5,29.89,NE,45,0.7,3.8,91,0.00,,,0.20,WUHU216HW,2012-12-14 22:56:00,
2012-12-14 15:01:00,41.9,39.5,29.89,ESE,113,0.7,3.8,91,0.00,,,0.20,WUHU216HW,2012-12-14 23:01:00,
2012-12-14 15:07:00,41.8,39.3,29.89,ESE,113,0.0,1.6,91,0.00,,,0.20,WUHU216HW,2012-12-14 23:07:00,
2012-12-14 15:12:00,41.8,39.3,29.89,ESE,113,0.0,1.6,91,0.00,,,0.20,WUHU216HW,2012-12-14 23:12:00,
2012-12-14 15:17:00,41.6,39.2,29.89,NE,45,0.0,1.6,91,0.00,,,0.20,WUHU216HW,2012-12-14 23:17:00,
2012-12-14 15:21:00,41.6,39.2,29.89,SE,135,0.0,1.3,91,0.00,,,0.20,WUHU216HW,2012-12-14 23:21:00,
2012-12-14 15:27:00,41.6,39.4,29.89,NNE,23,0.0,1.3,92,0.00,,,0.20,WUHU216HW,2012-12-14 23:27:00,
2012-12-14 15:32:00,41.6,39.4,29.89,NE,45,1.1,1.3,92,0.00,,,0.20,WUHU216HW,2012-12-14 23:32:00,
2012-12-14 15:37:00,41.4,39.2,29.89,SE,135,1.1,4.5,92,0.00,,,0.20,WUHU216HW,2012-12-14 23:37:00,
2012-12-14 15:41:00,41.4,39.0,29.90,SSE,158,0.0,4.5,91,0.00,,,0.20,WUHU216HW,2012-12-14 23:41:00,
2012-12-14 15:46:00,41.4,39.2,29.90,West,270,2.0,2.5,92,0.00,,,0.20,WUHU216HW,2012-12-14 23:46:00,
2012-12-14 15:51:00,41.2,39.1,29.90,WSW,248,0.9,2.9,92,0.00,,,0.20,WUHU216HW,2012-12-14 23:51:00,
2012-12-14 15:56:00,41.2,39.1,29.91,WSW,248,1.8,2.9,92,0.00,,,0.20,WUHU216HW,2012-12-14 23:56:00,
2012-12-14 16:01:00,41.2,39.1,29.91,West,270,2.5,2.5,92,0.00,,,0.20,WUHU216HW,2012-12-15 00:01:00,
2012-12-14 16:06:00,41.0,38.9,29.91,WSW,248,2.2,2.5,92,0.00,,,0.20,WUHU216HW,2012-12-15 00:06:00,
2012-12-14 16:11:00,41.0,38.9,29.91,SW,225,2.0,2.5,92,0.00,,,0.20,WUHU216HW,2012-12-15 00:11:00,
2012-12-14 16:16:00,40.9,38.7,29.91,West,270,2.7,4.0,92,0.00,,,0.20,WUHU216HW,2012-12-15 00:16:00,
2012-12-14 16:22:00,40.9,39.0,29.91,SW,225,2.5,4.0,93,0.00,,,0.20,WUHU216HW,2012-12-15 00:22:00,
2012-12-14 16:27:00,40.7,38.8,29.91,West,270,0.0,3.4,93,0.00,,,0.20,WUHU216HW,2012-12-15 00:27:00,
2012-12-14 16:32:00,40.7,38.8,29.90,WSW,248,0.4,3.4,93,0.00,,,0.20,WUHU216HW,2012-12-15 00:32:00,
2012-12-14 16:37:00,40.7,38.8,29.90,WSW,248,1.3,1.6,93,0.00,,,0.20,WUHU216HW,2012-12-15 00:37:00,
2012-12-14 16:42:00,40.7,38.8,29.91,WSW,248,1.3,2.0,93,0.00,,,0.20,WUHU216HW,2012-12-15 00:42:00,
2012-12-14 16:47:00,40.7,38.8,29.91,WSW,248,1.6,2.0,93,0.00,,,0.20,WUHU216HW,2012-12-15 00:47:00,
2012-12-14 16:52:00,40.7,38.8,29.91,WSW,248,1.6,2.0,93,0.00,,,0.20,WUHU216HW,2012-12-15 00:52:00,
2012-12-14 16:57:00,40.5,38.6,29.91,WSW,248,0.4,2.0,93,0.00,,,0.20,WUHU216HW,2012-12-15 00:57:00,
2012-12-14 17:02:00,40.5,38.6,29.91,WSW,248,0.0,1.6,93,0.00,,,0.20,WUHU216HW,2012-12-15 01:02:00,
2012-12-14 17:07:00,40.5,38.6,29.91,WSW,248,0.0,0.7,93,0.00,,,0.20,WUHU216HW,2012-12-15 01:07:00,
2012-12-14 17:12:00,40.3,38.4,29.91,WSW,248,2.5,3.4,93,0.00,,,0.20,WUHU216HW,2012-12-15 01:12:00,
2012-12-14 17:17:00,40.3,38.4,29.91,WSW,248,1.8,3.4,93,0.00,,,0.20,WUHU216HW,2012-12-15 01:17:00,
2012-12-14 17:22:00,40.1,38.3,29.91,SW,225,1.8,2.5,93,0.00,,,0.20,WUHU216HW,2012-12-15 01:22:00,
2012-12-14 17:27:00,40.1,38.3,29.91,SW,225,1.3,3.4,93,0.00,,,0.20,WUHU216HW,2012-12-15 01:27:00,
2012-12-14 17:32:00,40.0,38.1,29.91,SSW,203,0.7,3.4,93,0.00,,,0.20,WUHU216HW,2012-12-15 01:32:00,
2012-12-14 17:37:00,40.0,38.1,29.91,SW,225,2.9,3.6,93,0.00,,,0.20,WUHU216HW,2012-12-15 01:37:00,
2012-12-14 17:42:00,40.0,38.1,29.91,SW,225,1.8,3.6,93,0.00,,,0.20,WUHU216HW,2012-12-15 01:42:00,
2012-12-14 17:47:00,40.0,38.1,29.91,SW,225,1.3,2.9,93,0.00,,,0.20,WUHU216HW,2012-12-15 01:47:00,
2012-12-14 17:52:00,40.0,38.1,29.91,West,270,1.8,2.5,93,0.00,,,0.20,WUHU216HW,2012-12-15 01:52:00,
2012-12-14 17:57:00,39.8,37.9,29.91,WSW,248,1.6,2.5,93,0.00,,,0.20,WUHU216HW,2012-12-15 01:57:00,
2012-12-14 18:02:00,39.8,37.9,29.91,West,270,1.8,2.2,93,0.00,,,0.20,WUHU216HW,2012-12-15 02:02:00,
2012-12-14 18:07:00,39.8,37.9,29.91,WSW,248,2.0,2.5,93,0.00,,,0.20,WUHU216HW,2012-12-15 02:07:00,
2012-12-14 18:12:00,39.8,37.9,29.91,West,270,1.8,2.5,93,0.00,,,0.20,WUHU216HW,2012-12-15 02:12:00,
2012-12-14 18:17:00,39.6,37.7,29.91,WSW,248,1.1,2.5,93,0.00,,,0.20,WUHU216HW,2012-12-15 02:17:00,
2012-12-14 18:22:00,39.6,37.7,29.91,West,270,0.7,2.2,93,0.00,,,0.20,WUHU216HW,2012-12-15 02:22:00,
2012-12-14 18:27:00,39.6,37.7,29.91,WSW,248,1.1,1.8,93,0.00,,,0.20,WUHU216HW,2012-12-15 02:27:00,
2012-12-14 18:32:00,39.4,37.5,29.91,WSW,248,1.8,1.8,93,0.00,,,0.20,WUHU216HW,2012-12-15 02:32:00,
2012-12-14 18:37:00,39.4,37.8,29.91,WSW,248,1.1,2.2,94,0.00,,,0.20,WUHU216HW,2012-12-15 02:37:00,
2012-12-14 18:42:00,39.4,37.8,29.91,WSW,248,2.0,2.5,94,0.00,,,0.20,WUHU216HW,2012-12-15 02:42:00,
2012-12-14 18:47:00,39.4,37.8,29.91,West,270,0.9,2.5,94,0.00,,,0.20,WUHU216HW,2012-12-15 02:47:00,
2012-12-14 18:52:00,39.2,37.4,29.91,West,270,0.9,2.0,93,0.00,,,0.20,WUHU216HW,2012-12-15 02:52:00,
2012-12-14 18:57:00,39.2,37.4,29.90,West,270,1.3,1.8,93,0.00,,,0.20,WUHU216HW,2012-12-15 02:57:00,
2012-12-14 19:02:00,39.2,37.4,29.90,West,270,0.9,1.8,93,0.00,,,0.20,WUHU216HW,2012-12-15 03:02:00,
2012-12-14 19:07:00,39.1,37.2,29.91,West,270,1.1,1.8,93,0.00,,,0.20,WUHU216HW,2012-12-15 03:07:00,
2012-12-14 19:12:00,38.9,37.0,29.91,WSW,248,2.0,2.2,93,0.00,,,0.20,WUHU216HW,2012-12-15 03:12:00,
2012-12-14 19:17:00,38.7,36.8,29.91,WSW,248,1.1,2.2,93,0.00,,,0.20,WUHU216HW,2012-12-15 03:17:00,
2012-12-14 19:22:00,38.5,36.6,29.91,WSW,248,1.8,1.8,93,0.00,,,0.20,WUHU216HW,2012-12-15 03:22:00,
2012-12-14 19:27:00,38.2,36.3,29.91,West,270,1.1,2.2,93,0.00,,,0.20,WUHU216HW,2012-12-15 03:27:00,
2012-12-14 19:32:00,37.8,35.9,29.90,West,270,1.6,2.2,93,0.00,,,0.20,WUHU216HW,2012-12-15 03:32:00,
2012-12-14 19:37:00,37.8,35.6,29.91,West,270,1.8,2.0,92,0.00,,,0.20,WUHU216HW,2012-12-15 03:37:00,
2012-12-14 19:42:00,37.6,35.7,29.91,WSW,248,2.5,2.5,93,0.00,,,0.20,WUHU216HW,2012-12-15 03:42:00,
2012-12-14 19:47:00,37.3,35.1,29.91,West,270,2.0,2.5,92,0.00,,,0.20,WUHU216HW,2012-12-15 03:47:00,
2012-12-14 19:52:00,37.1,35.2,29.91,WSW,248,1.8,2.5,93,0.00,,,0.20,WUHU216HW,2012-12-15 03:52:00,
2012-12-14 19:57:00,36.9,34.7,29.91,WSW,248,1.8,2.5,92,0.00,,,0.20,WUHU216HW,2012-12-15 03:57:00,
2012-12-14 20:02:00,36.5,34.4,29.91,WSW,248,1.3,2.5,92,0.00,,,0.20,WUHU216HW,2012-12-15 04:02:00,
2012-12-14 20:07:00,36.4,34.2,29.91,West,270,0.9,2.5,92,0.00,,,0.20,WUHU216HW,2012-12-15 04:07:00,
2012-12-14 20:12:00,36.2,34.3,29.91,West,270,2.5,2.7,93,0.00,,,0.20,WUHU216HW,2012-12-15 04:12:00,
2012-12-14 20:17:00,36.0,34.1,29.91,West,270,2.0,2.7,93,0.00,,,0.20,WUHU216HW,2012-12-15 04:17:00,
2012-12-14 20:22:00,36.0,34.1,29.91,WSW,248,2.0,2.5,93,0.00,,,0.20,WUHU216HW,2012-12-15 04:22:00,
2012-12-14 20:27:00,35.8,33.9,29.91,WSW,248,2.5,2.7,93,0.00,,,0.20,WUHU216HW,2012-12-15 04:27:00,
2012-12-14 20:32:00,35.6,33.8,29.91,WSW,248,4.0,4.0,93,0.00,,,0.20,WUHU216HW,2012-12-15 04:32:00,
2012-12-14 20:37:00,35.6,33.8,29.91,West,270,1.6,4.0,93,0.00,,,0.20,WUHU216HW,2012-12-15 04:37:00,
2012-12-14 20:42:00,35.5,33.6,29.91,WSW,248,1.1,4.0,93,0.00,,,0.20,WUHU216HW,2012-12-15 04:42:00,
2012-12-14 20:47:00,35.5,33.6,29.90,West,270,1.8,2.2,93,0.00,,,0.20,WUHU216HW,2012-12-15 04:47:00,
2012-12-14 20:52:00,35.5,33.6,29.91,West,270,2.5,3.8,93,0.00,,,0.20,WUHU216HW,2012-12-15 04:52:00,
2012-12-14 20:57:00,35.5,33.6,29.91,WSW,248,2.0,3.8,93,0.00,,,0.20,WUHU216HW,2012-12-15 04:57:00,
2012-12-14 21:00:00,35.5,33.6,29.91,WSW,248,3.4,3.8,93,0.00,,,0.20,WUHU216HW,2012-12-15 05:00:00,
2012-12-14 21:05:00,35.3,33.4,29.91,WSW,248,2.5,3.6,93,0.00,,,0.20,WUHU216HW,2012-12-15 05:05:00,
2012-12-14 21:10:00,35.3,33.4,29.91,WSW,248,3.4,3.4,93,0.00,,,0.20,WUHU216HW,2012-12-15 05:10:00,
2012-12-14 21:15:00,35.1,33.2,29.91,WSW,248,2.5,3.8,93,0.00,,,0.20,WUHU216HW,2012-12-15 05:15:00,
2012-12-14 21:20:00,35.1,33.2,29.91,WSW,248,2.5,3.8,93,0.00,,,0.20,WUHU216HW,2012-12-15 05:20:00,
2012-12-14 21:25:00,35.1,33.2,29.91,WSW,248,2.5,2.9,93,0.00,,,0.20,WUHU216HW,2012-12-15 05:25:00,
2012-12-14 21:30:00,34.9,33.0,29.91,WSW,248,2.0,2.7,93,0.00,,,0.20,WUHU216HW,2012-12-15 05:30:00,
2012-12-14 21:35:00,34.9,33.0,29.91,West,270,2.0,2.9,93,0.00,,,0.20,WUHU216HW,2012-12-15 05:35:00,
2012-12-14 21:40:00,34.9,33.3,29.91,WSW,248,1.8,2.9,94,0.00,,,0.20,WUHU216HW,2012-12-15 05:40:00,
2012-12-14 21:45:00,35.1,33.5,29.91,WSW,248,1.3,2.5,94,0.00,,,0.20,WUHU216HW,2012-12-15 05:45:00,
2012-12-14 21:50:00,35.1,33.5,29.91,WSW,248,1.3,2.2,94,0.00,,,0.20,WUHU216HW,2012-12-15 05:50:00,
2012-12-14 21:55:00,35.1,33.5,29.91,WSW,248,1.8,2.2,94,0.00,,,0.20,WUHU216HW,2012-12-15 05:55:00,
2012-12-14 22:00:00,34.9,33.3,29.91,WSW,248,2.2,2.5,94,0.00,,,0.20,WUHU216HW,2012-12-15 06:00:00,
2012-12-14 22:05:00,34.9,33.3,29.91,WSW,248,2.0,3.1,94,0.00,,,0.20,WUHU216HW,2012-12-15 06:05:00,
2012-12-14 22:10:00,34.9,33.3,29.91,WSW,248,1.6,3.1,94,0.00,,,0.20,WUHU216HW,2012-12-15 06:10:00,
2012-12-14 22:15:00,34.9,33.3,29.90,SSW,203,1.1,2.9,94,0.00,,,0.20,WUHU216HW,2012-12-15 06:15:00,
2012-12-14 22:20:00,34.9,33.3,29.90,SW,225,1.1,1.6,94,0.00,,,0.20,WUHU216HW,2012-12-15 06:20:00,
2012-12-14 22:25:00,35.1,33.5,29.91,WSW,248,1.1,1.3,94,0.00,,,0.20,WUHU216HW,2012-12-15 06:25:00,
2012-12-14 22:30:00,35.3,33.7,29.90,WSW,248,0.0,1.3,94,0.00,,,0.20,WUHU216HW,2012-12-15 06:30:00,
2012-12-14 22:35:00,35.5,33.8,29.90,WSW,248,1.6,1.8,94,0.00,,,0.20,WUHU216HW,2012-12-15 06:35:00,
2012-12-14 22:40:00,35.6,34.0,29.90,SW,225,1.6,1.8,94,0.00,,,0.20,WUHU216HW,2012-12-15 06:40:00,
2012-12-14 22:45:00,35.8,34.2,29.90,SW,225,1.6,2.0,94,0.00,,,0.20,WUHU216HW,2012-12-15 06:45:00,
2012-12-14 22:50:00,36.0,34.4,29.90,WSW,248,0.4,2.0,94,0.00,,,0.20,WUHU216HW,2012-12-15 06:50:00,
2012-12-14 22:55:00,36.0,34.4,29.90,WSW,248,0.7,1.8,94,0.00,,,0.20,WUHU216HW,2012-12-15 06:55:00,
2012-12-14 23:00:00,36.2,34.6,29.90,WSW,248,1.3,1.6,94,0.00,,,0.20,WUHU216HW,2012-12-15 07:00:00,
2012-12-14 23:05:00,36.0,34.4,29.90,SW,225,3.1,3.1,94,0.00,,,0.20,WUHU216HW,2012-12-15 07:05:00,
2012-12-14 23:10:00,36.0,34.4,29.90,SW,225,2.7,3.4,94,0.00,,,0.20,WUHU216HW,2012-12-15 07:10:00,
2012-12-14 23:15:00,36.0,34.4,29.90,SW,225,2.0,3.4,94,0.00,,,0.20,WUHU216HW,2012-12-15 07:15:00,
2012-12-14 23:20:00,36.2,34.6,29.89,SW,225,1.3,4.0,94,0.00,,,0.20,WUHU216HW,2012-12-15 07:20:00,
2012-12-14 23:25:00,36.4,34.7,29.89,WSW,248,1.1,4.0,94,0.00,,,0.20,WUHU216HW,2012-12-15 07:25:00,
2012-12-14 23:30:00,36.4,34.7,29.89,SW,225,1.1,3.1,94,0.00,,,0.20,WUHU216HW,2012-12-15 07:30:00,
2012-12-14 23:35:00,36.5,34.9,29.89,SW,225,1.1,3.6,94,0.00,,,0.20,WUHU216HW,2012-12-15 07:35:00,
2012-12-14 23:40:00,36.5,34.9,29.89,NNE,23,0.9,3.6,94,0.00,,,0.20,WUHU216HW,2012-12-15 07:40:00,
2012-12-14 23:45:00,36.7,35.1,29.89,WSW,248,0.9,3.6,94,0.00,,,0.20,WUHU216HW,2012-12-15 07:45:00,
2012-12-14 23:50:00,36.9,35.3,29.89,WSW,248,1.1,3.8,94,0.00,,,0.20,WUHU216HW,2012-12-15 07:50:00,
2012-12-14 23:55:00,36.9,35.3,29.89,SSW,203,0.4,3.8,94,0.00,,,0.20,WUHU216HW,2012-12-15 07:55:00,